Time;durP1;ratioP1;P1;durP2;ratioP2;P2;SDS_P1;SDS_P2;PMS_P1;PMS_P2;Temp;Humidity;BMP_temperature;BMP_pressure;BME280_temperature;BME280_humidity;BME280_pressure;Samples;Min_cycle;Max_cycle;Signal;HPM_P1;HPM_P2
2022/07/02 00:00:03;;;;;;;1.37;1.27;;;17.70;40.60;;;;;;10314005;28;20229;-74
2022/07/02 00:05:09;;;;;;;3.77;1.10;;;17.60;40.60;;;;;;10311857;28;20228;-75
2022/07/02 00:10:12;;;;;;;2.03;1.40;;;17.50;40.50;;;;;;10312783;28;20708;-75
2022/07/02 00:15:16;;;;;;;1.30;1.20;;;17.50;40.50;;;;;;10315463;28;20222;-75
2022/07/02 00:20:21;;;;;;;2.73;1.10;;;17.40;40.70;;;;;;10312121;28;20783;-75
2022/07/02 00:25:27;;;;;;;1.47;1.37;;;17.30;40.80;;;;;;10312429;28;20238;-75
2022/07/02 00:30:30;;;;;;;1.50;1.40;;;17.30;40.60;;;;;;10317345;28;20741;-75
2022/07/02 00:35:35;;;;;;;1.40;1.30;;;17.20;40.70;;;;;;10312662;28;20226;-75
2022/07/02 00:40:39;;;;;;;2.23;1.20;;;17.10;40.80;;;;;;10315049;28;20253;-75
2022/07/02 00:45:42;;;;;;;1.10;1.00;;;17.10;40.70;;;;;;10316366;28;20226;-75
2022/07/02 00:50:47;;;;;;;1.53;1.00;;;17.00;40.50;;;;;;10310972;28;20241;-75
2022/07/02 00:55:56;;;;;;;0.80;0.80;;;17.00;41.00;;;;;;10316323;28;20259;-76
2022/07/02 01:01:00;;;;;;;0.83;0.83;;;16.80;41.30;;;;;;10315584;28;20604;-76
2022/07/02 01:06:05;;;;;;;1.73;1.63;;;16.90;41.30;;;;;;10314358;28;20778;-76
2022/07/02 01:11:09;;;;;;;1.83;1.63;;;16.90;41.80;;;;;;10314572;28;20223;-76
2022/07/02 01:16:12;;;;;;;2.30;2.03;;;16.80;41.70;;;;;;10314407;28;20226;-76
2022/07/02 01:21:17;;;;;;;2.73;2.37;;;16.90;42.00;;;;;;10321294;28;21498;-76
2022/07/02 01:26:22;;;;;;;3.50;2.97;;;16.90;42.30;;;;;;10325919;28;20223;-76
2022/07/02 01:31:25;;;;;;;3.73;3.20;;;16.90;42.50;;;;;;10323611;28;20607;-76
2022/07/02 01:36:29;;;;;;;3.43;3.00;;;16.90;42.30;;;;;;10320728;28;20227;-76
2022/07/02 01:41:42;;;;;;;4.43;4.03;;;16.80;42.20;;;;;;10321174;28;20235;-76
2022/07/02 01:46:46;;;;;;;4.23;3.83;;;16.80;43.00;;;;;;10323267;28;20233;-76
2022/07/02 01:51:49;;;;;;;11.07;3.27;;;16.80;42.70;;;;;;10324912;28;20238;-76
2022/07/02 01:56:54;;;;;;;3.03;2.80;;;16.80;42.70;;;;;;10319564;28;20226;-76
2022/07/02 02:01:57;;;;;;;19.00;3.10;;;16.80;42.70;;;;;;10320951;28;20242;-76
2022/07/02 02:07:01;;;;;;;19.10;3.50;;;16.80;42.50;;;;;;10319648;28;20223;-76
2022/07/02 02:12:06;;;;;;;10.50;3.40;;;16.60;42.30;;;;;;10318282;28;20231;-76
2022/07/02 02:17:09;;;;;;;16.50;2.70;;;16.60;43.10;;;;;;10321135;28;20230;-76
2022/07/02 02:22:13;;;;;;;4.37;2.47;;;16.50;42.70;;;;;;10321237;28;20731;-76
2022/07/02 02:27:17;;;;;;;2.40;2.30;;;16.40;42.50;;;;;;10319688;28;20598;-76
2022/07/02 02:32:20;;;;;;;6.43;2.67;;;16.30;43.00;;;;;;10325903;28;20706;-76
2022/07/02 02:37:23;;;;;;;2.30;2.20;;;16.20;42.80;;;;;;10318188;28;20227;-76
2022/07/02 02:42:28;;;;;;;26.17;2.37;;;16.30;43.00;;;;;;10322482;28;20234;-76
2022/07/02 02:47:31;;;;;;;20.53;2.23;;;16.20;43.20;;;;;;10316955;28;20227;-76
2022/07/02 02:52:34;;;;;;;2.27;2.03;;;16.20;42.70;;;;;;10319935;28;20234;-76
2022/07/02 02:57:39;;;;;;;19.97;2.50;;;16.10;42.80;;;;;;10318646;28;20223;-76
2022/07/02 03:02:42;;;;;;;1.87;1.77;;;16.10;43.20;;;;;;10319559;28;20230;-76
2022/07/02 03:07:45;;;;;;;12.73;1.90;;;16.00;43.00;;;;;;10317658;28;20519;-76
2022/07/02 03:12:50;;;;;;;17.30;1.83;;;16.00;43.00;;;;;;10319617;28;20451;-76
2022/07/02 03:17:53;;;;;;;1.30;1.30;;;15.90;43.30;;;;;;10315239;28;20236;-76
2022/07/02 03:22:57;;;;;;;1.47;1.37;;;15.80;43.00;;;;;;10322466;28;20235;-76
2022/07/02 03:28:01;;;;;;;5.10;1.40;;;15.70;42.80;;;;;;10319564;28;20222;-76
2022/07/02 03:33:04;;;;;;;4.13;1.30;;;15.70;43.50;;;;;;10323652;28;20601;-77
2022/07/02 03:38:07;;;;;;;1.30;1.20;;;15.70;43.10;;;;;;10318366;28;20258;-76
2022/07/02 03:43:12;;;;;;;1.20;1.20;;;15.60;43.10;;;;;;10316954;28;20231;-75
2022/07/02 03:48:15;;;;;;;0.80;0.80;;;15.60;43.50;;;;;;10319818;28;20361;-76
2022/07/02 03:53:18;;;;;;;1.20;1.10;;;15.70;43.40;;;;;;10316547;28;20235;-76
2022/07/02 03:58:23;;;;;;;1.07;1.07;;;15.70;43.50;;;;;;10316851;28;20242;-75
2022/07/02 04:03:26;;;;;;;1.70;1.60;;;15.80;43.60;;;;;;10314072;28;20243;-74
2022/07/02 04:08:30;;;;;;;1.60;1.50;;;15.80;43.30;;;;;;10314700;28;20277;-75
2022/07/02 04:13:34;;;;;;;1.83;1.73;;;15.80;43.10;;;;;;10312484;28;20734;-75
2022/07/02 04:18:37;;;;;;;2.13;2.03;;;15.90;43.50;;;;;;10312724;28;20569;-75
2022/07/02 04:23:44;;;;;;;2.30;2.20;;;15.90;43.30;;;;;;10315438;28;20281;-75
2022/07/02 04:28:49;;;;;;;2.47;2.27;;;15.90;43.40;;;;;;10315483;28;20226;-75
2022/07/02 04:33:52;;;;;;;3.23;2.00;;;16.00;43.80;;;;;;10322829;28;20242;-75
2022/07/02 04:38:55;;;;;;;2.40;2.30;;;16.00;43.40;;;;;;10318421;28;20230;-75
2022/07/02 04:44:00;;;;;;;5.50;2.87;;;16.00;43.50;;;;;;10319819;28;20238;-75
2022/07/02 04:49:03;;;;;;;4.10;3.80;;;16.00;43.60;;;;;;10324874;28;20616;-74
2022/07/02 04:54:06;;;;;;;3.87;3.60;;;16.00;43.40;;;;;;10326278;28;20234;-75
2022/07/02 04:59:11;;;;;;;4.67;4.37;;;16.00;43.50;;;;;;10329151;28;20226;-75
2022/07/02 05:04:14;;;;;;;3.80;3.60;;;16.00;44.00;;;;;;10325710;28;20226;-75
2022/07/02 05:09:17;;;;;;;3.70;3.30;;;16.10;43.90;;;;;;10321771;28;20304;-75
2022/07/02 05:14:22;;;;;;;16.13;3.20;;;16.10;44.00;;;;;;10320140;28;20237;-75
2022/07/02 05:19:25;;;;;;;4.17;2.70;;;16.10;44.00;;;;;;10321466;28;20245;-75
2022/07/02 05:24:28;;;;;;;9.87;2.90;;;16.10;43.70;;;;;;10326832;28;20772;-75
2022/07/02 05:29:33;;;;;;;2.43;2.33;;;16.00;43.90;;;;;;10319598;28;20223;-75
2022/07/02 05:34:36;;;;;;;2.17;2.07;;;16.00;44.80;;;;;;10315102;28;20739;-74
2022/07/02 05:39:40;;;;;;;3.10;2.80;;;16.10;44.60;;;;;;10311084;28;20599;-75
2022/07/02 05:44:45;;;;;;;3.07;2.87;;;16.20;44.80;;;;;;10319306;28;20690;-75
2022/07/02 05:49:48;;;;;;;12.03;3.97;;;16.20;45.40;;;;;;10318570;28;20231;-75
2022/07/02 05:54:51;;;;;;;6.50;2.53;;;16.30;45.40;;;;;;10321867;28;20261;-75
2022/07/02 05:59:56;;;;;;;3.07;2.87;;;16.30;45.50;;;;;;10318354;28;20605;-75
2022/07/02 06:07:38;;;;;;;3.30;3.00;;;16.40;45.60;;;;;;10329308;28;20237;-75
2022/07/02 06:10:23;;;;;;;3.07;2.87;;;16.50;45.60;;;;;;10325397;28;20234;-75
2022/07/02 06:15:27;;;;;;;3.13;2.93;;;16.60;45.70;;;;;;10320435;28;20619;-74
2022/07/02 06:20:31;;;;;;;3.03;2.83;;;16.80;46.20;;;;;;10319599;28;20227;-75
2022/07/02 06:25:34;;;;;;;3.60;3.30;;;16.90;46.00;;;;;;10316523;28;20612;-75
2022/07/02 06:30:39;;;;;;;4.10;3.70;;;17.00;46.10;;;;;;10313896;28;20232;-75
2022/07/02 06:35:42;;;;;;;3.53;3.33;;;17.20;46.80;;;;;;10305615;28;20227;-75
2022/07/02 06:40:46;;;;;;;3.53;3.33;;;17.30;46.40;;;;;;10309654;28;20227;-75
2022/07/02 06:45:50;;;;;;;3.43;3.13;;;17.40;46.60;;;;;;10308828;28;20235;-75
2022/07/02 06:50:54;;;;;;;3.13;2.87;;;17.50;47.90;;;;;;10304335;28;20711;-75
2022/07/02 06:55:57;;;;;;;3.30;3.10;;;17.70;47.50;;;;;;10313284;28;20244;-75
2022/07/02 07:01:02;;;;;;;1.60;1.50;;;18.00;47.90;;;;;;10304987;28;20597;-74
2022/07/02 07:06:05;;;;;;;3.03;1.53;;;18.20;47.20;;;;;;10306390;28;20305;-75
2022/07/02 07:11:08;;;;;;;1.43;1.33;;;18.50;47.40;;;;;;10307201;28;20230;-74
2022/07/02 07:16:13;;;;;;;2.60;1.43;;;18.80;47.00;;;;;;10308596;28;20227;-74
2022/07/02 07:21:16;;;;;;;1.23;1.17;;;19.10;45.90;;;;;;10298186;28;20239;-74
2022/07/02 07:26:19;;;;;;;1.33;1.20;;;19.30;46.10;;;;;;10297928;28;20231;-75
2022/07/02 07:31:24;;;;;;;1.30;1.20;;;19.60;45.70;;;;;;10298769;28;20230;-75
2022/07/02 07:36:27;;;;;;;1.10;1.00;;;19.90;45.00;;;;;;10295691;28;20230;-75
2022/07/02 07:41:32;;;;;;;2.13;1.10;;;20.10;44.60;;;;;;10299995;28;20226;-73
2022/07/02 07:46:37;;;;;;;0.90;0.90;;;20.40;44.40;;;;;;10305123;28;20334;-72
2022/07/02 07:51:40;;;;;;;1.37;1.00;;;20.50;43.20;;;;;;10313103;28;20708;-72
2022/07/02 07:56:43;;;;;;;0.90;0.90;;;20.80;44.00;;;;;;10288320;28;20953;-73
2022/07/02 08:01:48;;;;;;;1.00;1.00;;;21.10;43.70;;;;;;10274507;28;20227;-72
2022/07/02 08:06:51;;;;;;;1.10;1.10;;;21.30;42.40;;;;;;10306807;28;20618;-72
2022/07/02 08:11:54;;;;;;;0.93;0.93;;;21.60;42.90;;;;;;10310481;28;20234;-72
2022/07/02 08:16:59;;;;;;;0.90;0.90;;;21.80;42.10;;;;;;10314853;28;20227;-72
2022/07/02 08:22:02;;;;;;;1.57;1.10;;;22.00;41.00;;;;;;10311880;28;20234;-72
2022/07/02 08:27:06;;;;;;;0.90;0.90;;;22.10;41.50;;;;;;10315994;28;20890;-72
2022/07/02 08:32:11;;;;;;;1.73;1.10;;;22.40;41.00;;;;;;10318154;28;20751;-72
2022/07/02 08:37:14;;;;;;;1.20;1.10;;;22.60;40.20;;;;;;10315730;28;20593;-72
2022/07/02 08:42:25;;;;;;;1.00;1.00;;;22.80;40.10;;;;;;10314449;28;20572;-72
2022/07/02 08:47:31;;;;;;;1.00;1.00;;;23.00;38.40;;;;;;10317028;28;20241;-72
2022/07/02 08:52:38;;;;;;;0.90;0.90;;;23.20;38.10;;;;;;10316050;28;20276;-72
2022/07/02 08:57:48;;;;;;;0.90;0.90;;;23.40;38.80;;;;;;10317320;28;20605;-74
2022/07/02 09:02:56;;;;;;;1.00;1.00;;;23.60;38.60;;;;;;10316007;28;20241;-75
2022/07/02 09:08:00;;;;;;;0.93;0.93;;;23.80;37.10;;;;;;10321954;28;20237;-76
2022/07/02 09:13:04;;;;;;;0.90;0.90;;;24.00;37.90;;;;;;10320523;28;20239;-75
2022/07/02 09:18:09;;;;;;;2.40;0.90;;;24.20;37.80;;;;;;10321980;28;20274;-75
2022/07/02 09:23:20;;;;;;;2.53;1.20;;;24.40;36.70;;;;;;10319732;28;20219;-76
2022/07/02 09:28:23;;;;;;;1.03;0.97;;;24.50;36.80;;;;;;10315706;28;20223;-76
2022/07/02 09:33:31;;;;;;;2.07;1.07;;;24.70;36.40;;;;;;10312646;28;20234;-75
2022/07/02 09:38:41;;;;;;;1.10;1.10;;;24.80;35.30;;;;;;10316438;28;20223;-76
2022/07/02 09:43:44;;;;;;;1.50;1.00;;;24.90;34.50;;;;;;10319508;28;20226;-77
2022/07/02 09:48:49;;;;;;;1.20;1.07;;;25.20;36.20;;;;;;10318600;28;20705;-76
2022/07/02 09:53:55;;;;;;;0.87;0.87;;;25.30;34.50;;;;;;10326922;28;20254;-76
2022/07/02 09:58:59;;;;;;;0.90;0.90;;;25.40;34.50;;;;;;10319303;28;20242;-76
2022/07/02 10:04:03;;;;;;;2.70;1.00;;;25.70;35.40;;;;;;10322777;28;20222;-75
2022/07/02 10:09:08;;;;;;;1.50;0.90;;;25.80;33.80;;;;;;10319572;28;20682;-74
2022/07/02 10:14:15;;;;;;;0.90;0.90;;;25.90;33.30;;;;;;10321947;28;20666;-79
2022/07/02 10:19:21;;;;;;;2.00;1.10;;;26.00;32.60;;;;;;10317607;28;20227;-79
2022/07/02 10:24:26;;;;;;;1.00;1.00;;;26.20;32.30;;;;;;10324345;28;20736;-79
2022/07/02 10:29:30;;;;;;;1.03;1.03;;;26.20;33.00;;;;;;10325033;28;20226;-79
2022/07/02 10:34:46;;;;;;;0.83;0.83;;;26.40;33.10;;;;;;10322010;28;20659;-79
2022/07/02 10:39:50;;;;;;;1.60;0.90;;;26.50;32.40;;;;;;10321779;28;20229;-79
2022/07/02 10:44:53;;;;;;;1.00;1.00;;;26.60;33.00;;;;;;10332018;28;20233;-79
2022/07/02 10:50:01;;;;;;;0.90;0.90;;;26.80;32.30;;;;;;10324687;28;20219;-78
2022/07/02 10:55:04;;;;;;;2.37;1.00;;;26.90;30.00;;;;;;10324758;28;20227;-80
2022/07/02 11:00:14;;;;;;;0.90;0.90;;;27.00;30.90;;;;;;10334464;28;20223;-80
2022/07/02 11:05:20;;;;;;;1.30;0.93;;;27.00;30.10;;;;;;10333636;28;20289;-80
2022/07/02 11:10:28;;;;;;;0.90;0.90;;;27.10;29.50;;;;;;10333589;28;20227;-80
2022/07/02 11:15:36;;;;;;;0.80;0.80;;;27.10;28.90;;;;;;10321926;28;21307;-83
2022/07/02 11:20:42;;;;;;;1.00;1.00;;;27.10;28.70;;;;;;10329334;28;20242;-78
2022/07/02 11:25:45;;;;;;;0.90;0.90;;;27.20;29.10;;;;;;10320538;28;20770;-77
2022/07/02 11:30:58;;;;;;;1.00;1.00;;;27.30;29.90;;;;;;10321264;28;20227;-78
2022/07/02 11:36:03;;;;;;;0.97;0.97;;;27.30;27.40;;;;;;10323122;28;20719;-77
2022/07/02 11:41:17;;;;;;;0.90;0.90;;;27.40;28.40;;;;;;10327352;28;20230;-78
2022/07/02 11:46:23;;;;;;;0.90;0.90;;;27.40;27.10;;;;;;10325339;28;21261;-76
2022/07/02 11:51:28;;;;;;;0.90;0.90;;;27.40;27.80;;;;;;10316456;28;20808;-74
2022/07/02 11:56:32;;;;;;;0.90;0.90;;;27.40;27.60;;;;;;10311338;28;20831;-74
2022/07/02 12:01:36;;;;;;;0.80;0.80;;;27.40;28.70;;;;;;10302520;28;20615;-74
2022/07/02 12:06:44;;;;;;;0.80;0.80;;;27.50;27.90;;;;;;10306716;28;20231;-73
2022/07/02 12:11:48;;;;;;;0.90;0.90;;;27.50;26.40;;;;;;10305175;28;20227;-73
2022/07/02 12:16:52;;;;;;;1.37;1.00;;;27.60;27.20;;;;;;10307211;28;20226;-73
2022/07/02 12:21:57;;;;;;;0.80;0.80;;;27.60;27.60;;;;;;10306765;28;20657;-75
2022/07/02 12:27:01;;;;;;;0.83;0.83;;;27.70;26.50;;;;;;10309225;28;20231;-75
2022/07/02 12:32:07;;;;;;;0.83;0.83;;;27.70;26.40;;;;;;10314164;28;20231;-76
2022/07/02 12:37:22;;;;;;;1.00;1.00;;;27.80;26.20;;;;;;10318109;28;20315;-76
2022/07/02 12:42:25;;;;;;;1.27;1.10;;;27.80;25.10;;;;;;10308157;28;20285;-76
2022/07/02 12:47:31;;;;;;;0.80;0.80;;;27.80;26.30;;;;;;10307616;28;20239;-73
2022/07/02 12:52:46;;;;;;;0.80;0.80;;;27.90;25.90;;;;;;10314960;28;20227;-74
2022/07/02 12:57:50;;;;;;;0.80;0.80;;;27.90;24.70;;;;;;10311701;28;20222;-73
2022/07/02 13:03:01;;;;;;;0.93;0.93;;;28.00;26.90;;;;;;10308589;28;20235;-74
2022/07/02 13:08:07;;;;;;;1.00;1.00;;;28.10;24.90;;;;;;10311532;28;20517;-74
2022/07/02 13:13:10;;;;;;;0.97;0.97;;;28.20;25.10;;;;;;10305791;28;20571;-74
2022/07/02 13:18:13;;;;;;;1.50;0.90;;;28.20;25.60;;;;;;10323709;28;20230;-69
2022/07/02 13:23:18;;;;;;;1.07;0.87;;;28.20;25.40;;;;;;10325767;28;20323;-75
2022/07/02 13:28:21;;;;;;;0.90;0.90;;;28.20;24.20;;;;;;10327561;28;21437;-75
2022/07/02 13:33:24;;;;;;;0.90;0.90;;;28.20;24.90;;;;;;10329132;28;20614;-76
2022/07/02 13:38:29;;;;;;;1.03;0.93;;;28.20;24.50;;;;;;10328508;28;20321;-75
2022/07/02 13:43:32;;;;;;;0.80;0.80;;;28.20;24.00;;;;;;10322118;28;20238;-69
2022/07/02 13:48:35;;;;;;;0.80;0.80;;;28.20;24.40;;;;;;10319234;28;20337;-76
2022/07/02 13:53:40;;;;;;;1.00;0.90;;;28.30;24.30;;;;;;10325169;28;20219;-76
2022/07/02 13:58:43;;;;;;;2.37;0.80;;;28.40;23.50;;;;;;10320142;28;20219;-73
2022/07/02 14:03:47;;;;;;;1.10;0.90;;;28.30;23.50;;;;;;10321135;28;20520;-74
2022/07/02 14:08:51;;;;;;;0.90;0.90;;;28.40;23.70;;;;;;10318905;28;20232;-73
2022/07/02 14:13:54;;;;;;;0.90;0.90;;;28.40;23.00;;;;;;10322530;28;20234;-74
2022/07/02 14:18:58;;;;;;;0.90;0.90;;;28.40;23.70;;;;;;10318136;28;20787;-74
2022/07/02 14:24:02;;;;;;;1.00;1.00;;;28.50;23.30;;;;;;10318877;28;20234;-69
2022/07/02 14:29:05;;;;;;;1.20;1.10;;;28.50;22.60;;;;;;10321865;28;20219;-69
2022/07/02 14:34:09;;;;;;;0.97;0.90;;;28.50;23.30;;;;;;10318737;28;20235;-73
2022/07/02 14:39:15;;;;;;;0.90;0.90;;;28.60;23.10;;;;;;10315672;28;20230;-73
2022/07/02 14:44:18;;;;;;;0.90;0.90;;;28.70;22.60;;;;;;10312178;28;20670;-74
2022/07/02 14:49:22;;;;;;;1.17;1.17;;;28.70;23.10;;;;;;10315225;28;20234;-74
2022/07/02 14:54:26;;;;;;;1.00;1.00;;;28.80;22.70;;;;;;10312355;28;20231;-74
2022/07/02 14:59:30;;;;;;;1.00;1.00;;;28.70;22.10;;;;;;10312731;28;20683;-74
2022/07/02 15:04:34;;;;;;;1.00;1.00;;;28.70;22.50;;;;;;10313218;28;20233;-74
2022/07/02 15:09:38;;;;;;;1.10;1.00;;;28.80;22.50;;;;;;10315521;28;20231;-74
2022/07/02 15:20:02;;;;;;;0.90;0.90;;;28.90;22.30;;;;;;10318107;28;20238;-73
2022/07/02 15:25:09;;;;;;;0.90;0.90;;;28.80;22.40;;;;;;10312600;28;20231;-74
2022/07/02 15:30:14;;;;;;;0.80;0.80;;;28.90;21.60;;;;;;10316001;28;20230;-69
2022/07/02 15:35:18;;;;;;;1.00;1.00;;;28.90;21.80;;;;;;10315129;28;20231;-68
2022/07/02 15:40:24;;;;;;;0.93;0.93;;;29.00;22.20;;;;;;10317149;28;20226;-69
2022/07/02 15:45:28;;;;;;;1.13;0.90;;;29.00;21.50;;;;;;10316885;28;20234;-71
2022/07/02 15:50:32;;;;;;;0.80;0.80;;;29.00;21.70;;;;;;10314840;28;20313;-75
2022/07/02 15:55:40;;;;;;;0.90;0.90;;;29.00;21.00;;;;;;10312633;28;20243;-75
2022/07/02 16:00:46;;;;;;;0.90;0.90;;;29.00;20.60;;;;;;10304944;28;20227;-68
2022/07/02 16:05:50;;;;;;;0.80;0.80;;;29.00;21.90;;;;;;10301715;28;20259;-68
2022/07/02 16:10:56;;;;;;;1.00;0.90;;;29.00;21.90;;;;;;10305730;28;20235;-72
2022/07/02 16:16:00;;;;;;;0.90;0.90;;;29.10;21.40;;;;;;10311495;28;20721;-71
2022/07/02 16:21:03;;;;;;;0.90;0.90;;;29.00;21.70;;;;;;10315610;28;20297;-71
2022/07/02 16:26:09;;;;;;;0.90;0.90;;;29.00;21.60;;;;;;10319771;28;20237;-71
2022/07/02 16:31:16;;;;;;;0.80;0.80;;;28.90;20.90;;;;;;10315673;28;20230;-72
2022/07/02 16:36:23;;;;;;;1.00;1.00;;;28.90;20.50;;;;;;10321166;28;20231;-72
2022/07/02 16:41:31;;;;;;;1.00;0.90;;;28.80;20.50;;;;;;10317367;28;20230;-72
2022/07/02 16:46:35;;;;;;;0.87;0.83;;;28.80;20.90;;;;;;10324084;28;20243;-72
2022/07/02 16:51:40;;;;;;;1.00;0.90;;;28.80;21.30;;;;;;10326018;28;20242;-72
2022/07/02 16:56:45;;;;;;;0.80;0.80;;;28.80;21.30;;;;;;10327836;28;20432;-75
2022/07/02 17:01:48;;;;;;;1.20;1.10;;;28.70;20.90;;;;;;10332587;28;20570;-75
2022/07/02 17:06:52;;;;;;;0.80;0.80;;;28.80;21.50;;;;;;10336311;28;20231;-73
2022/07/02 17:11:56;;;;;;;0.97;0.97;;;28.80;21.30;;;;;;10333722;28;20230;-72
2022/07/02 17:17:00;;;;;;;1.43;0.90;;;28.70;21.30;;;;;;10330502;28;20219;-72
2022/07/02 17:22:03;;;;;;;0.90;0.90;;;28.80;21.50;;;;;;10322672;28;20352;-74
2022/07/02 17:27:08;;;;;;;0.83;0.83;;;28.80;21.40;;;;;;10330414;28;20731;-73
2022/07/02 17:32:11;;;;;;;0.90;0.90;;;28.70;21.20;;;;;;10329544;28;20229;-72
2022/07/02 17:37:14;;;;;;;1.00;1.00;;;28.70;21.60;;;;;;10325121;28;20259;-69
2022/07/02 17:42:19;;;;;;;1.27;1.17;;;28.70;21.60;;;;;;10326350;28;20231;-69
2022/07/02 17:47:22;;;;;;;1.57;1.10;;;28.70;21.30;;;;;;10326386;28;20707;-69
2022/07/02 17:52:26;;;;;;;1.20;1.20;;;28.70;21.80;;;;;;10328797;28;20346;-74
2022/07/02 17:57:31;;;;;;;5.10;4.20;;;28.70;21.90;;;;;;10326277;28;20234;-72
2022/07/02 18:02:34;;;;;;;4.43;4.00;;;28.60;21.70;;;;;;10322226;28;20515;-68
2022/07/02 18:07:37;;;;;;;2.90;2.60;;;28.60;21.90;;;;;;10310946;28;20235;-74
2022/07/02 18:12:43;;;;;;;5.40;4.90;;;28.50;21.80;;;;;;10317574;28;20608;-74
2022/07/02 18:17:46;;;;;;;9.63;8.67;;;28.40;21.80;;;;;;10312804;28;20222;-74
2022/07/02 18:22:49;;;;;;;4.67;4.20;;;28.40;21.90;;;;;;10319817;28;20237;-74
2022/07/02 18:27:54;;;;;;;2.40;2.00;;;28.30;22.00;;;;;;10325109;28;20231;-74
2022/07/02 18:32:57;;;;;;;1.50;1.40;;;28.20;21.70;;;;;;10318587;28;20328;-74
2022/07/02 18:38:01;;;;;;;2.00;1.80;;;28.10;21.80;;;;;;10327167;28;20226;-74
2022/07/02 18:43:06;;;;;;;5.27;4.80;;;28.00;22.50;;;;;;10319748;28;20705;-74
2022/07/02 18:48:13;;;;;;;3.23;3.03;;;27.90;21.90;;;;;;10331378;28;20285;-74
2022/07/02 18:53:16;;;;;;;2.10;2.00;;;27.80;22.30;;;;;;10327225;28;20794;-74
2022/07/02 18:58:21;;;;;;;2.33;1.60;;;27.70;22.30;;;;;;10317838;28;20836;-74
2022/07/02 19:03:24;;;;;;;2.87;2.67;;;27.70;22.50;;;;;;10324288;28;20227;-74
2022/07/02 19:08:27;;;;;;;1.93;1.83;;;27.60;22.60;;;;;;10319094;28;20226;-74
2022/07/02 19:13:34;;;;;;;1.50;1.40;;;27.60;22.70;;;;;;10311227;28;20230;-74
2022/07/02 19:18:37;;;;;;;1.20;1.20;;;27.60;22.80;;;;;;10315498;28;20312;-74
2022/07/02 19:23:43;;;;;;;1.30;1.20;;;27.50;23.10;;;;;;10311746;28;20763;-72
2022/07/02 19:34:13;;;;;;;3.60;2.97;;;27.40;23.40;;;;;;10314651;28;20226;-72
2022/07/02 19:39:17;;;;;;;2.43;1.90;;;27.30;23.40;;;;;;10312650;28;20223;-71
2022/07/02 19:44:22;;;;;;;1.83;1.30;;;27.20;23.60;;;;;;10318891;28;20230;-72
2022/07/02 19:49:25;;;;;;;1.40;1.30;;;27.00;23.90;;;;;;10312100;28;20257;-71
2022/07/02 19:54:28;;;;;;;1.13;1.10;;;26.80;23.70;;;;;;10302165;28;20237;-71
2022/07/02 19:59:33;;;;;;;1.57;1.30;;;26.70;24.00;;;;;;10303678;28;20231;-71
2022/07/02 20:04:37;;;;;;;4.53;4.23;;;26.50;24.30;;;;;;10304185;28;20242;-71
2022/07/02 20:09:40;;;;;;;5.37;4.90;;;26.40;24.50;;;;;;10309428;28;20231;-74
2022/07/02 20:14:46;;;;;;;4.70;4.40;;;26.30;24.60;;;;;;10314055;28;20723;-74
2022/07/02 20:19:49;;;;;;;2.80;2.60;;;26.10;24.80;;;;;;10314682;28;20835;-72
2022/07/02 20:24:52;;;;;;;1.63;1.53;;;25.90;24.80;;;;;;10311395;28;20235;-72
2022/07/02 20:29:58;;;;;;;1.40;1.40;;;25.70;24.90;;;;;;10316327;28;20651;-72
2022/07/02 20:35:01;;;;;;;1.50;1.40;;;25.60;25.30;;;;;;10321852;28;20599;-73
2022/07/02 20:40:06;;;;;;;1.33;1.20;;;25.40;25.40;;;;;;10320992;28;20227;-72
2022/07/02 20:45:11;;;;;;;1.50;1.40;;;25.30;25.60;;;;;;10312718;28;20235;-72
2022/07/02 20:50:14;;;;;;;1.50;1.40;;;25.10;25.80;;;;;;10322355;28;20284;-70
2022/07/02 20:55:18;;;;;;;1.30;1.20;;;25.00;25.80;;;;;;10323402;28;20234;-73
2022/07/02 21:00:22;;;;;;;1.97;1.30;;;24.90;25.70;;;;;;10318465;28;20594;-73
2022/07/02 21:05:25;;;;;;;1.20;1.20;;;24.70;26.00;;;;;;10313567;28;20233;-72
2022/07/02 21:10:30;;;;;;;1.50;1.50;;;24.60;26.00;;;;;;10319362;28;20230;-72
2022/07/02 21:15:36;;;;;;;1.93;1.23;;;24.50;26.20;;;;;;10322532;28;20234;-72
2022/07/02 21:20:39;;;;;;;1.70;1.60;;;24.40;26.50;;;;;;10317711;28;20348;-72
2022/07/02 21:25:42;;;;;;;1.80;1.70;;;24.20;26.20;;;;;;10314545;28;20229;-72
2022/07/02 21:30:47;;;;;;;1.60;1.50;;;24.00;26.30;;;;;;10310590;28;20727;-72
2022/07/02 21:35:50;;;;;;;3.73;2.40;;;23.70;26.60;;;;;;10308919;28;20230;-72
2022/07/02 21:40:54;;;;;;;2.53;1.80;;;23.30;26.70;;;;;;10319984;28;20605;-73
2022/07/02 21:46:01;;;;;;;2.10;2.00;;;22.90;27.30;;;;;;10323243;28;20498;-73
2022/07/02 21:51:05;;;;;;;2.17;2.07;;;22.60;27.50;;;;;;10321741;28;20226;-73
2022/07/02 21:56:08;;;;;;;2.10;2.00;;;22.20;27.30;;;;;;10328219;28;20226;-74
2022/07/02 22:01:13;;;;;;;1.87;1.77;;;22.10;27.90;;;;;;10325158;28;20543;-73
2022/07/02 22:06:16;;;;;;;1.97;1.87;;;22.00;28.50;;;;;;10322145;28;20242;-73
2022/07/02 22:11:19;;;;;;;2.37;2.17;;;21.90;28.30;;;;;;10328553;28;20581;-73
2022/07/02 22:16:24;;;;;;;2.13;1.80;;;22.00;28.30;;;;;;10321392;28;20737;-72
2022/07/02 22:21:27;;;;;;;2.90;2.13;;;22.00;28.80;;;;;;10320760;28;20241;-73
2022/07/02 22:26:30;;;;;;;4.00;3.70;;;22.00;28.50;;;;;;10325568;28;20589;-72
2022/07/02 22:31:35;;;;;;;3.63;3.43;;;21.90;28.60;;;;;;10323136;28;20676;-73
2022/07/02 22:36:38;;;;;;;3.30;3.10;;;21.80;28.80;;;;;;10321881;28;20223;-73
2022/07/02 22:41:42;;;;;;;3.50;3.20;;;21.80;28.80;;;;;;10325113;28;20621;-73
2022/07/02 22:46:46;;;;;;;2.40;2.30;;;21.80;28.90;;;;;;10324242;28;20238;-73
2022/07/02 22:51:50;;;;;;;2.57;2.33;;;21.80;29.20;;;;;;10326648;28;20605;-73
2022/07/02 22:56:53;;;;;;;3.77;1.77;;;21.70;29.00;;;;;;10320010;28;20227;-73
2022/07/02 23:01:58;;;;;;;2.00;1.90;;;21.60;29.00;;;;;;10323679;28;20234;-73
2022/07/02 23:07:01;;;;;;;1.93;1.70;;;21.60;29.40;;;;;;10325217;28;20229;-73
2022/07/02 23:12:05;;;;;;;2.13;1.60;;;21.60;29.10;;;;;;10323100;28;20233;-72
2022/07/02 23:17:10;;;;;;;1.73;1.60;;;21.50;29.20;;;;;;10324934;28;20222;-73
2022/07/02 23:22:13;;;;;;;1.80;1.70;;;21.50;29.60;;;;;;10316283;28;20598;-73
2022/07/02 23:27:17;;;;;;;1.60;1.50;;;21.40;29.10;;;;;;10325768;28;20238;-73
2022/07/02 23:32:21;;;;;;;1.70;1.60;;;21.40;29.30;;;;;;10324368;28;20238;-73
2022/07/02 23:37:24;;;;;;;2.20;1.70;;;21.30;29.70;;;;;;10320988;28;20231;-73
2022/07/02 23:42:28;;;;;;;1.70;1.60;;;21.30;29.40;;;;;;10325111;28;20237;-72
2022/07/02 23:47:32;;;;;;;1.40;1.30;;;21.20;29.40;;;;;;10323014;28;20603;-72
2022/07/02 23:52:35;;;;;;;2.73;1.57;;;21.20;29.70;;;;;;10325327;28;20227;-72
2022/07/02 23:57:38;;;;;;;1.90;1.80;;;21.20;29.60;;;;;;10322673;28;20463;-72
